createdAt,value
2022-12-16T00:02:02.115Z,59.40
2022-12-16T00:04:30.894Z,50.35
2022-12-16T00:06:59.136Z,46.90
2022-12-16T00:09:27.858Z,45.55
2022-12-16T00:11:56.499Z,48.97
2022-12-16T00:14:25.562Z,55.03
2022-12-16T00:16:53.711Z,59.00
2022-12-16T00:19:23.343Z,51.70
2022-12-16T00:21:51.804Z,52.30
2022-12-16T00:24:20.527Z,56.13
2022-12-16T00:26:49.105Z,50.28
2022-12-16T00:29:17.807Z,43.63
2022-12-16T00:31:48.298Z,40.47
2022-12-16T00:34:17.413Z,42.15
2022-12-16T00:36:45.661Z,40.28
2022-12-16T00:39:14.400Z,41.70
2022-12-16T00:41:42.652Z,41.95
2022-12-16T00:44:11.311Z,40.00
2022-12-16T00:46:40.447Z,41.13
2022-12-16T00:49:09.204Z,47.60
2022-12-16T00:51:38.547Z,44.55
2022-12-16T00:54:07.208Z,41.70
2022-12-16T00:56:35.655Z,41.17
2022-12-16T00:59:04.292Z,41.70
2022-12-16T01:01:32.683Z,46.75
2022-12-16T01:04:01.618Z,53.00
2022-12-16T01:06:29.992Z,53.28
2022-12-16T01:08:58.811Z,56.05
2022-12-16T01:11:27.308Z,55.88
2022-12-16T01:13:56.137Z,50.30
2022-12-16T01:16:24.425Z,51.03
2022-12-16T01:18:55.497Z,46.92
2022-12-16T01:21:23.857Z,46.40
2022-12-16T01:23:53.030Z,43.90
2022-12-16T01:26:25.833Z,43.80
2022-12-16T01:28:55.199Z,42.80
2022-12-16T01:31:24.647Z,43.80
2022-12-16T01:33:53.321Z,42.58
2022-12-16T01:36:21.634Z,41.35
2022-12-16T01:38:50.476Z,42.60
2022-12-16T01:41:19.280Z,43.00
2022-12-16T01:43:48.320Z,38.90
2022-12-16T01:46:25.658Z,38.92
2022-12-16T01:49:01.166Z,38.30
2022-12-16T01:51:38.722Z,36.88
2022-12-16T01:54:25.840Z,36.67
2022-12-16T01:56:58.579Z,36.05
2022-12-16T01:59:30.112Z,36.78
2022-12-16T02:01:59.793Z,37.63
2022-12-16T02:05:12.942Z,35.50
2022-12-16T02:07:41.232Z,33.67
2022-12-16T02:10:12.096Z,35.42
2022-12-16T02:12:46.687Z,35.58
2022-12-16T02:15:24.662Z,37.53
2022-12-16T02:18:04.925Z,35.53
2022-12-16T02:20:50.041Z,31.58
2022-12-16T02:23:39.923Z,30.75
2022-12-16T02:26:47.457Z,30.00
2022-12-16T02:29:32.005Z,32.53
2022-12-16T02:32:26.803Z,32.50
2022-12-16T02:35:10.503Z,34.03
2022-12-16T02:38:15.990Z,33.60
2022-12-16T02:40:52.114Z,31.25
2022-12-16T02:43:43.394Z,33.00
2022-12-16T02:46:12.449Z,31.77
2022-12-16T02:48:41.337Z,31.83
2022-12-16T02:51:09.925Z,33.10
2022-12-16T02:53:41.596Z,31.23
2022-12-16T02:56:34.671Z,32.45
2022-12-16T02:59:24.950Z,30.15
2022-12-16T03:02:02.571Z,33.88
2022-12-16T03:04:47.303Z,35.85
2022-12-16T03:07:18.680Z,38.63
2022-12-16T03:12:20.281Z,30.88
2022-12-16T03:14:55.241Z,34.10
2022-12-16T03:17:25.885Z,32.55
2022-12-16T03:20:07.611Z,29.40
2022-12-16T03:22:39.283Z,32.55
2022-12-16T03:25:08.933Z,32.78
2022-12-16T03:27:56.287Z,33.63
2022-12-16T03:30:40.027Z,29.63
2022-12-16T03:33:20.127Z,29.67
2022-12-16T03:35:57.308Z,29.63
2022-12-16T03:38:27.820Z,32.47
2022-12-16T03:40:58.752Z,31.33
2022-12-16T03:43:28.330Z,32.47
2022-12-16T03:46:03.023Z,34.50
2022-12-16T03:48:31.587Z,33.50
2022-12-16T03:51:03.988Z,34.58
2022-12-16T03:56:05.138Z,32.15
2022-12-16T03:58:35.729Z,31.93
2022-12-16T04:01:04.919Z,29.13
2022-12-16T04:03:34.297Z,28.10
2022-12-16T04:06:04.004Z,28.05
2022-12-16T04:08:32.376Z,29.20
2022-12-16T04:11:19.901Z,29.45
2022-12-16T04:14:06.663Z,26.77
2022-12-16T04:16:53.978Z,26.33
2022-12-16T04:19:44.761Z,25.80
2022-12-16T04:22:45.498Z,28.02
2022-12-16T04:25:28.435Z,25.80
2022-12-16T04:28:22.693Z,28.60
2022-12-16T04:30:51.272Z,28.95
2022-12-16T04:33:40.348Z,30.60
2022-12-16T04:36:28.153Z,29.90
2022-12-16T04:39:16.444Z,26.67
2022-12-16T04:42:03.345Z,26.45
2022-12-16T04:44:51.781Z,26.30
2022-12-16T04:47:38.812Z,29.40
2022-12-16T04:50:26.641Z,32.72
2022-12-16T04:53:14.338Z,33.35
2022-12-16T04:56:04.768Z,35.45
2022-12-16T04:58:51.939Z,35.05
2022-12-16T05:01:39.636Z,34.55
2022-12-16T05:04:26.819Z,33.35
2022-12-16T05:07:13.784Z,30.92
2022-12-16T05:10:00.812Z,32.72
2022-12-16T05:12:48.074Z,32.13
2022-12-16T05:15:34.911Z,31.70
2022-12-16T05:18:34.122Z,31.60
2022-12-16T05:21:23.019Z,30.60
2022-12-16T05:24:10.541Z,32.38
2022-12-16T05:27:22.415Z,30.30
2022-12-16T05:32:56.420Z,27.35
2022-12-16T05:35:50.119Z,31.33
2022-12-16T05:38:37.254Z,30.50
2022-12-16T05:41:24.729Z,33.55
2022-12-16T05:44:11.353Z,33.00
2022-12-16T05:46:58.880Z,30.70
2022-12-16T05:49:45.974Z,32.05
2022-12-16T05:52:33.128Z,33.10
2022-12-16T05:55:20.014Z,33.67
2022-12-16T05:58:10.942Z,34.05
2022-12-16T06:00:57.754Z,32.88
2022-12-16T06:07:23.534Z,27.33
2022-12-16T06:11:01.397Z,29.50
2022-12-16T06:14:16.537Z,33.20
2022-12-16T06:17:03.588Z,34.13
2022-12-16T06:19:50.782Z,40.92
2022-12-16T06:22:41.676Z,37.15
2022-12-16T06:25:28.454Z,35.97
2022-12-16T06:28:17.153Z,32.70
2022-12-16T06:31:04.218Z,33.05
2022-12-16T06:33:54.775Z,33.55
2022-12-16T06:36:42.125Z,34.80
2022-12-16T06:39:29.586Z,33.42
2022-12-16T06:42:16.479Z,33.00
2022-12-16T06:45:03.781Z,34.13
2022-12-16T06:47:50.902Z,33.50
2022-12-16T06:50:42.950Z,36.17
2022-12-16T06:53:31.838Z,37.30
2022-12-16T06:56:19.313Z,38.22
2022-12-16T06:59:06.133Z,36.50
2022-12-16T07:01:53.561Z,40.17
2022-12-16T07:04:40.427Z,40.47
2022-12-16T07:07:27.985Z,40.60
2022-12-16T07:10:14.803Z,40.55
2022-12-16T07:13:02.223Z,39.75
2022-12-16T07:15:49.150Z,43.58
2022-12-16T07:18:36.227Z,42.70
2022-12-16T07:21:23.635Z,149.45
2022-12-16T07:24:10.594Z,76.10
2022-12-16T07:26:59.958Z,48.47
2022-12-16T07:29:47.273Z,50.22
2022-12-16T07:32:34.022Z,47.03
2022-12-16T07:35:21.193Z,41.78
2022-12-16T07:38:07.851Z,41.35
2022-12-16T07:40:55.118Z,45.13
2022-12-16T07:43:42.008Z,46.53
2022-12-16T07:46:29.517Z,44.63
2022-12-16T07:49:16.193Z,47.42
2022-12-16T07:52:03.876Z,44.00
2022-12-16T07:54:50.610Z,44.67
2022-12-16T07:57:38.567Z,44.42
2022-12-16T08:00:26.724Z,44.65
2022-12-16T08:03:13.736Z,44.78
2022-12-16T08:06:00.849Z,43.88
2022-12-16T08:08:50.298Z,43.88
2022-12-16T08:11:38.488Z,45.40
2022-12-16T08:14:25.521Z,47.28
2022-12-16T08:17:13.766Z,49.97
2022-12-16T08:20:01.029Z,50.92
2022-12-16T09:19:42.002Z,94.23
2022-12-16T09:22:30.327Z,92.38
2022-12-16T09:25:20.118Z,110.90
2022-12-16T09:28:10.620Z,108.55
2022-12-16T09:30:59.275Z,91.97
2022-12-16T09:33:48.346Z,65.75
2022-12-16T09:36:36.035Z,54.53
2022-12-16T09:39:25.617Z,54.08
2022-12-16T09:42:47.863Z,57.17
2022-12-16T09:46:02.313Z,49.92
2022-12-16T09:49:03.673Z,53.72
2022-12-16T09:51:53.145Z,52.10
2022-12-16T09:54:45.501Z,54.85
2022-12-16T09:57:34.093Z,55.30
2022-12-16T10:00:25.765Z,53.67
2022-12-16T10:03:17.054Z,52.65
2022-12-16T10:06:20.335Z,52.45
2022-12-16T10:09:17.851Z,50.05
2022-12-16T10:12:28.847Z,52.38
2022-12-16T10:15:36.009Z,51.05
2022-12-16T10:18:36.062Z,51.42
2022-12-16T10:21:24.641Z,52.53
2022-12-16T10:24:50.244Z,51.60
2022-12-16T10:27:49.271Z,53.70
2022-12-16T10:30:36.120Z,46.47
2022-12-16T10:33:27.627Z,53.28
2022-12-16T10:36:15.367Z,54.58
2022-12-16T10:39:08.960Z,57.53
2022-12-16T10:42:00.308Z,82.72
2022-12-16T10:44:59.611Z,79.60
2022-12-16T10:47:46.395Z,136.98
2022-12-16T10:50:33.292Z,113.10
2022-12-16T10:53:28.656Z,162.70
2022-12-16T10:56:31.043Z,103.57
2022-12-16T10:59:23.269Z,71.75
2022-12-16T11:02:29.642Z,123.30
2022-12-16T11:05:16.500Z,155.85
2022-12-16T11:08:03.596Z,156.40
2022-12-16T11:10:56.812Z,93.63
2022-12-16T11:13:49.182Z,164.05
2022-12-16T11:16:40.020Z,230.02
2022-12-16T11:19:44.952Z,98.80
2022-12-16T11:22:34.717Z,55.03
2022-12-16T11:25:37.119Z,88.82
2022-12-16T11:28:35.245Z,75.72
2022-12-16T11:31:26.317Z,148.07
2022-12-16T11:34:13.596Z,85.43
2022-12-16T11:37:03.823Z,92.68
2022-12-16T11:39:55.216Z,117.53
2022-12-16T11:42:51.931Z,101.05
2022-12-16T11:45:40.149Z,77.60
2022-12-16T11:49:01.474Z,97.22
2022-12-16T11:51:54.432Z,89.95
2022-12-16T11:54:52.436Z,89.70
2022-12-16T11:58:02.952Z,61.65
2022-12-16T12:00:55.163Z,85.40
2022-12-16T12:03:46.270Z,64.50
2022-12-16T12:06:40.526Z,50.78
2022-12-16T12:09:34.990Z,62.38
2022-12-16T12:13:07.578Z,51.90
2022-12-16T12:16:26.177Z,55.78
2022-12-16T12:19:31.302Z,50.67
2022-12-16T12:22:52.110Z,49.15
2022-12-16T12:26:00.738Z,50.40
2022-12-16T12:29:32.247Z,49.50
2022-12-16T12:32:31.025Z,68.00
2022-12-16T12:35:49.828Z,77.93
2022-12-16T12:38:38.435Z,56.22
2022-12-16T12:41:38.345Z,54.30
2022-12-16T12:44:42.494Z,59.53
2022-12-16T12:47:38.065Z,55.63
2022-12-16T12:50:35.662Z,64.97
2022-12-16T12:54:21.921Z,75.57
2022-12-16T12:57:11.929Z,74.28
2022-12-16T13:00:10.493Z,63.50
2022-12-16T13:03:33.857Z,63.13
2022-12-16T13:06:22.034Z,64.90
2022-12-16T13:09:09.059Z,65.50
2022-12-16T13:11:57.243Z,76.50
2022-12-16T13:15:10.520Z,64.35
2022-12-16T13:18:24.023Z,49.15
2022-12-16T13:21:16.538Z,47.75
2022-12-16T13:24:05.902Z,59.00
2022-12-16T13:26:54.061Z,59.88
2022-12-16T13:29:45.859Z,68.25
2022-12-16T13:32:43.603Z,96.30
2022-12-16T13:35:31.680Z,78.50
2022-12-16T13:38:45.353Z,49.95
2022-12-16T13:41:44.596Z,68.10
2022-12-16T13:44:52.392Z,64.80
2022-12-16T13:48:14.064Z,54.47
2022-12-16T13:51:18.017Z,44.85
2022-12-16T13:54:09.880Z,50.60
2022-12-16T13:57:07.536Z,49.28
2022-12-16T13:59:57.256Z,44.13
2022-12-16T14:02:55.055Z,61.72
2022-12-16T14:05:49.121Z,48.78
2022-12-16T14:08:39.446Z,49.00
2022-12-16T14:11:38.293Z,61.83
2022-12-16T14:14:36.448Z,104.80
2022-12-16T14:17:32.239Z,83.78
2022-12-16T14:20:32.051Z,58.90
2022-12-16T14:24:03.711Z,51.17
2022-12-16T14:26:54.666Z,56.13
2022-12-16T14:29:46.346Z,54.90
2022-12-16T14:39:21.579Z,75.65
2022-12-16T14:42:12.833Z,54.40
2022-12-16T14:45:20.349Z,121.25
2022-12-16T14:48:07.146Z,119.38
2022-12-16T14:50:54.642Z,76.15
2022-12-16T14:53:53.947Z,111.78
2022-12-16T14:56:43.377Z,61.83
2022-12-16T14:59:38.928Z,69.97
2022-12-16T15:02:38.745Z,98.88
2022-12-16T15:05:27.327Z,124.78
2022-12-16T15:08:17.456Z,88.38
2022-12-16T15:11:37.889Z,54.95
2022-12-16T15:14:57.246Z,55.08
2022-12-16T15:28:09.716Z,41.03
2022-12-16T15:31:05.415Z,43.35
2022-12-16T15:37:06.662Z,52.83
2022-12-16T15:40:11.581Z,62.75
2022-12-16T15:43:04.058Z,53.13
2022-12-16T15:46:41.234Z,52.25
2022-12-16T15:49:19.257Z,60.88
2022-12-16T15:52:15.029Z,66.03
2022-12-16T15:55:12.504Z,59.60
2022-12-16T16:36:39.471Z,52.30
2022-12-16T16:39:27.353Z,50.85
2022-12-16T16:42:14.722Z,46.97
2022-12-16T16:45:02.133Z,49.35
2022-12-16T16:47:49.110Z,46.20
2022-12-16T16:50:39.426Z,45.30
2022-12-16T16:53:34.523Z,46.83
2022-12-16T16:56:22.427Z,44.78
2022-12-16T16:59:09.234Z,49.35
2022-12-16T17:01:56.947Z,53.92
2022-12-16T17:04:43.926Z,46.80
2022-12-16T17:07:32.770Z,54.45
2022-12-16T17:13:31.250Z,56.72
2022-12-16T17:16:20.552Z,45.40
2022-12-16T17:19:07.862Z,42.50
2022-12-16T17:21:54.797Z,41.53
2022-12-16T17:24:48.377Z,45.38
2022-12-16T17:27:45.034Z,36.03
2022-12-16T17:30:47.047Z,46.72
2022-12-16T17:33:37.075Z,42.20
2022-12-16T17:36:42.323Z,40.45
2022-12-16T17:39:35.258Z,42.00
2022-12-16T17:42:30.164Z,40.45
2022-12-16T17:45:34.097Z,40.67
2022-12-16T17:48:24.688Z,40.40
2022-12-16T17:51:49.794Z,40.45
2022-12-16T17:55:01.977Z,41.58
2022-12-16T17:57:58.659Z,44.38
2022-12-16T18:01:35.207Z,53.33
2022-12-16T18:04:28.283Z,82.65
2022-12-16T18:07:34.376Z,40.75
2022-12-16T18:10:32.963Z,39.05
2022-12-16T18:14:44.339Z,40.70
2022-12-16T18:21:58.791Z,66.90
2022-12-16T18:24:53.114Z,135.50
2022-12-16T18:28:00.390Z,92.68
2022-12-16T18:31:43.874Z,84.90
2022-12-16T18:34:41.831Z,129.88
2022-12-16T18:37:37.300Z,133.18
2022-12-16T18:40:31.734Z,136.57
2022-12-16T18:43:22.704Z,94.05
2022-12-16T18:46:46.426Z,182.57
2022-12-16T18:49:33.650Z,53.55
2022-12-16T18:52:47.751Z,142.38
2022-12-16T18:55:42.111Z,96.30
2022-12-16T18:58:50.898Z,74.45
2022-12-16T19:01:59.060Z,48.70
2022-12-16T19:04:51.497Z,59.90
2022-12-16T19:07:38.825Z,142.88
2022-12-16T19:10:26.572Z,42.47
2022-12-16T19:13:22.852Z,48.47
2022-12-16T19:16:16.748Z,39.13
2022-12-16T19:19:13.835Z,44.15
2022-12-16T19:22:22.992Z,62.47
2022-12-16T19:25:13.867Z,40.40
2022-12-16T19:28:06.007Z,48.50
2022-12-16T19:31:16.525Z,36.67
2022-12-16T19:34:18.804Z,39.92
2022-12-16T19:37:10.500Z,37.65
2022-12-16T19:40:27.205Z,40.53
2022-12-16T19:43:28.648Z,33.45
2022-12-16T19:50:04.240Z,36.22
2022-12-16T19:53:00.781Z,32.88
2022-12-16T19:56:21.173Z,31.10
2022-12-16T19:59:11.382Z,34.45
2022-12-16T20:02:00.827Z,41.08
2022-12-16T20:05:08.274Z,34.63
2022-12-16T20:07:57.597Z,40.50
2022-12-16T20:10:47.576Z,38.08
2022-12-16T20:13:37.776Z,39.10
2022-12-16T20:16:30.120Z,38.40
2022-12-16T20:19:17.416Z,30.00
2022-12-16T20:25:12.200Z,30.52
2022-12-16T20:27:59.657Z,33.97
2022-12-16T20:30:56.826Z,32.67
2022-12-16T20:33:44.399Z,32.78
2022-12-16T20:36:31.393Z,45.72
2022-12-16T20:39:21.056Z,42.33
2022-12-16T20:45:34.448Z,28.02
2022-12-16T20:48:24.434Z,36.10
2022-12-16T20:51:21.079Z,35.33
2022-12-16T20:54:17.919Z,34.70
2022-12-16T20:57:56.630Z,32.58
2022-12-16T21:00:33.893Z,28.02
2022-12-16T21:03:31.424Z,27.33
2022-12-16T21:10:32.688Z,41.13
2022-12-16T21:16:45.575Z,31.67
2022-12-16T21:19:44.281Z,49.08
2022-12-16T21:22:41.175Z,48.05
2022-12-16T21:25:48.661Z,33.28
2022-12-16T21:29:01.236Z,27.23
2022-12-16T21:32:15.249Z,64.82
2022-12-16T21:35:08.536Z,40.92
2022-12-16T21:38:07.108Z,202.65
2022-12-16T21:41:12.468Z,94.10
2022-12-16T21:53:53.572Z,90.85
2022-12-16T21:56:43.381Z,33.42
2022-12-16T21:59:29.936Z,78.43
2022-12-16T22:02:16.944Z,76.63
2022-12-16T22:05:03.616Z,85.50
2022-12-16T22:07:50.397Z,44.70
2022-12-16T22:10:36.947Z,25.85
2022-12-16T22:13:23.843Z,27.02
2022-12-16T22:16:17.545Z,37.72
2022-12-16T22:19:04.601Z,59.13
2022-12-16T22:21:51.287Z,37.63
2022-12-16T22:27:49.307Z,31.67
2022-12-16T22:31:19.476Z,31.13
2022-12-16T22:34:10.924Z,46.45
2022-12-16T22:36:58.659Z,27.98
2022-12-16T22:40:10.684Z,25.65
2022-12-16T22:42:57.940Z,67.75
2022-12-16T22:45:45.025Z,72.80
2022-12-16T22:48:32.015Z,78.88
2022-12-16T22:51:18.846Z,51.45
2022-12-16T22:54:07.605Z,108.00
2022-12-16T22:57:14.264Z,56.28
2022-12-16T23:00:02.626Z,42.25
2022-12-16T23:06:00.484Z,55.75
2022-12-16T23:08:47.759Z,53.75
2022-12-16T23:11:51.771Z,84.95
2022-12-16T23:18:06.098Z,70.20
2022-12-16T23:20:53.047Z,67.68
2022-12-16T23:23:56.789Z,30.63
2022-12-16T23:26:44.763Z,33.35
2022-12-16T23:29:31.841Z,24.48
2022-12-16T23:38:35.866Z,33.15
2022-12-16T23:41:24.292Z,51.00
2022-12-16T23:44:11.119Z,39.80
2022-12-16T23:46:58.335Z,47.83
2022-12-16T23:49:45.301Z,50.17
2022-12-16T23:52:32.493Z,44.78
2022-12-16T23:55:20.209Z,35.85
2022-12-16T23:58:20.372Z,41.65
